Victoria, Virginia
Current Conditions -  °F | °C
As of 2:35 PM on Tuesday 21 Oct 2014 (Local Time) from KW31 Reporting Station
Overcast Overcast  
Wind Chill: 69°   Ceiling: 9000
Heat Index: 69°   Visibility: 10mi
Dew Point: 51°   Wind: 3mph
Humidity: 54%   Direction: 260°W
Pressure: 29.83"   Gusts: NA
Location:  36.99°N, 78.23°W
Report Text: KW31 211835Z AUTO 26003KT 10SM SCT048 OVC090 20/11 A2983 RMK AO1 T02030107
Loading
Personal Weather Stations






























Interactive Weather Map
Tropical Storm Tracking
New forecast layout! Learn more

10-Day Weather Forecast

Advertisements
Track Severe Weather on mobile